sensor_id;sensor_type;location;lat;lon;timestamp;P1;durP1;ratioP1;P2;durP2;ratioP2
69956;SDS011;57283;54.816;9.482;2023-01-19T00:01:25;22.42;;;13.48;;
69956;SDS011;57283;54.816;9.482;2023-01-19T00:03:53;13.27;;;6.10;;
69956;SDS011;57283;54.816;9.482;2023-01-19T00:06:21;12.27;;;6.80;;
69956;SDS011;57283;54.816;9.482;2023-01-19T00:08:49;10.90;;;5.80;;
69956;SDS011;57283;54.816;9.482;2023-01-19T00:11:17;12.90;;;6.47;;
69956;SDS011;57283;54.816;9.482;2023-01-19T00:13:46;11.32;;;5.05;;
69956;SDS011;57283;54.816;9.482;2023-01-19T00:16:16;12.52;;;6.50;;
69956;SDS011;57283;54.816;9.482;2023-01-19T00:18:45;17.50;;;9.90;;
69956;SDS011;57283;54.816;9.482;2023-01-19T00:21:13;15.23;;;7.83;;
69956;SDS011;57283;54.816;9.482;2023-01-19T00:23:41;16.75;;;7.68;;
69956;SDS011;57283;54.816;9.482;2023-01-19T00:26:12;15.05;;;6.55;;
69956;SDS011;57283;54.816;9.482;2023-01-19T00:28:42;10.88;;;5.10;;
69956;SDS011;57283;54.816;9.482;2023-01-19T00:31:12;17.90;;;9.05;;
69956;SDS011;57283;54.816;9.482;2023-01-19T00:33:39;13.57;;;7.10;;
69956;SDS011;57283;54.816;9.482;2023-01-19T00:36:08;15.68;;;7.53;;
69956;SDS011;57283;54.816;9.482;2023-01-19T00:38:36;20.10;;;11.23;;
69956;SDS011;57283;54.816;9.482;2023-01-19T00:41:05;12.85;;;6.95;;
69956;SDS011;57283;54.816;9.482;2023-01-19T00:43:33;14.02;;;7.13;;
69956;SDS011;57283;54.816;9.482;2023-01-19T00:46:01;14.13;;;8.07;;
69956;SDS011;57283;54.816;9.482;2023-01-19T00:48:30;11.65;;;4.82;;
69956;SDS011;57283;54.816;9.482;2023-01-19T00:50:58;11.68;;;5.72;;
69956;SDS011;57283;54.816;9.482;2023-01-19T00:53:26;9.40;;;5.07;;
69956;SDS011;57283;54.816;9.482;2023-01-19T00:55:57;12.88;;;6.28;;
69956;SDS011;57283;54.816;9.482;2023-01-19T00:58:25;13.87;;;6.33;;
69956;SDS011;57283;54.816;9.482;2023-01-19T01:00:53;12.45;;;6.05;;
69956;SDS011;57283;54.816;9.482;2023-01-19T01:03:23;13.88;;;7.60;;
69956;SDS011;57283;54.816;9.482;2023-01-19T01:05:54;13.40;;;5.68;;
69956;SDS011;57283;54.816;9.482;2023-01-19T01:08:22;10.38;;;5.38;;
69956;SDS011;57283;54.816;9.482;2023-01-19T01:10:50;7.63;;;4.77;;
69956;SDS011;57283;54.816;9.482;2023-01-19T01:13:18;13.38;;;5.80;;
69956;SDS011;57283;54.816;9.482;2023-01-19T01:15:49;13.68;;;6.75;;
69956;SDS011;57283;54.816;9.482;2023-01-19T01:18:17;12.52;;;5.07;;
69956;SDS011;57283;54.816;9.482;2023-01-19T01:20:45;9.88;;;4.72;;
69956;SDS011;57283;54.816;9.482;2023-01-19T01:23:14;12.10;;;7.33;;
69956;SDS011;57283;54.816;9.482;2023-01-19T01:25:48;11.70;;;5.72;;
69956;SDS011;57283;54.816;9.482;2023-01-19T01:28:16;13.70;;;6.60;;
69956;SDS011;57283;54.816;9.482;2023-01-19T01:30:43;14.63;;;7.00;;
69956;SDS011;57283;54.816;9.482;2023-01-19T01:33:11;9.65;;;4.93;;
69956;SDS011;57283;54.816;9.482;2023-01-19T01:35:39;14.53;;;8.73;;
69956;SDS011;57283;54.816;9.482;2023-01-19T01:38:08;11.73;;;6.05;;
69956;SDS011;57283;54.816;9.482;2023-01-19T01:40:39;19.80;;;8.30;;
69956;SDS011;57283;54.816;9.482;2023-01-19T01:43:08;13.95;;;5.80;;
69956;SDS011;57283;54.816;9.482;2023-01-19T01:45:38;14.80;;;6.57;;
69956;SDS011;57283;54.816;9.482;2023-01-19T01:48:08;14.97;;;6.60;;
69956;SDS011;57283;54.816;9.482;2023-01-19T01:50:40;15.68;;;7.97;;
69956;SDS011;57283;54.816;9.482;2023-01-19T01:53:33;10.52;;;5.00;;
69956;SDS011;57283;54.816;9.482;2023-01-19T01:56:05;11.82;;;6.35;;
69956;SDS011;57283;54.816;9.482;2023-01-19T01:58:39;18.48;;;10.23;;
69956;SDS011;57283;54.816;9.482;2023-01-19T02:01:07;12.13;;;5.30;;
69956;SDS011;57283;54.816;9.482;2023-01-19T02:03:54;15.40;;;7.85;;
69956;SDS011;57283;54.816;9.482;2023-01-19T02:06:23;11.90;;;6.25;;
69956;SDS011;57283;54.816;9.482;2023-01-19T02:08:52;15.73;;;8.30;;
69956;SDS011;57283;54.816;9.482;2023-01-19T02:11:44;13.75;;;4.85;;
69956;SDS011;57283;54.816;9.482;2023-01-19T02:14:30;14.87;;;7.87;;
69956;SDS011;57283;54.816;9.482;2023-01-19T02:16:58;13.25;;;6.05;;
69956;SDS011;57283;54.816;9.482;2023-01-19T02:19:27;14.05;;;7.32;;
69956;SDS011;57283;54.816;9.482;2023-01-19T02:22:00;9.05;;;4.85;;
69956;SDS011;57283;54.816;9.482;2023-01-19T02:24:35;10.40;;;5.53;;
69956;SDS011;57283;54.816;9.482;2023-01-19T02:27:04;14.63;;;5.87;;
69956;SDS011;57283;54.816;9.482;2023-01-19T02:29:34;18.77;;;9.20;;
69956;SDS011;57283;54.816;9.482;2023-01-19T02:32:02;9.73;;;3.90;;
69956;SDS011;57283;54.816;9.482;2023-01-19T02:34:30;9.35;;;4.72;;
69956;SDS011;57283;54.816;9.482;2023-01-19T02:37:00;11.57;;;4.80;;
69956;SDS011;57283;54.816;9.482;2023-01-19T02:39:32;10.93;;;4.60;;
69956;SDS011;57283;54.816;9.482;2023-01-19T02:42:06;12.85;;;6.25;;
69956;SDS011;57283;54.816;9.482;2023-01-19T02:44:42;10.10;;;3.67;;
69956;SDS011;57283;54.816;9.482;2023-01-19T02:47:13;8.90;;;4.75;;
69956;SDS011;57283;54.816;9.482;2023-01-19T02:49:41;7.95;;;3.55;;
69956;SDS011;57283;54.816;9.482;2023-01-19T02:52:11;12.40;;;5.87;;
69956;SDS011;57283;54.816;9.482;2023-01-19T02:54:45;8.10;;;3.40;;
69956;SDS011;57283;54.816;9.482;2023-01-19T02:57:34;10.68;;;5.85;;
69956;SDS011;57283;54.816;9.482;2023-01-19T03:00:13;6.60;;;3.50;;
69956;SDS011;57283;54.816;9.482;2023-01-19T03:02:54;10.15;;;3.42;;
69956;SDS011;57283;54.816;9.482;2023-01-19T03:05:38;9.47;;;3.20;;
69956;SDS011;57283;54.816;9.482;2023-01-19T03:08:15;10.68;;;5.55;;
69956;SDS011;57283;54.816;9.482;2023-01-19T03:10:56;8.30;;;4.15;;
69956;SDS011;57283;54.816;9.482;2023-01-19T03:13:31;9.75;;;5.10;;
69956;SDS011;57283;54.816;9.482;2023-01-19T03:16:10;11.90;;;6.68;;
69956;SDS011;57283;54.816;9.482;2023-01-19T03:18:44;9.67;;;5.23;;
69956;SDS011;57283;54.816;9.482;2023-01-19T03:21:13;9.40;;;4.47;;
69956;SDS011;57283;54.816;9.482;2023-01-19T03:23:44;9.73;;;4.03;;
69956;SDS011;57283;54.816;9.482;2023-01-19T03:26:18;10.27;;;4.60;;
69956;SDS011;57283;54.816;9.482;2023-01-19T03:28:51;8.90;;;3.45;;
69956;SDS011;57283;54.816;9.482;2023-01-19T03:31:23;11.03;;;5.37;;
69956;SDS011;57283;54.816;9.482;2023-01-19T03:33:54;8.10;;;3.67;;
69956;SDS011;57283;54.816;9.482;2023-01-19T03:36:26;8.90;;;4.63;;
69956;SDS011;57283;54.816;9.482;2023-01-19T03:38:58;9.90;;;4.68;;
69956;SDS011;57283;54.816;9.482;2023-01-19T03:41:28;11.85;;;4.85;;
69956;SDS011;57283;54.816;9.482;2023-01-19T03:44:00;10.90;;;5.80;;
69956;SDS011;57283;54.816;9.482;2023-01-19T03:46:31;12.25;;;6.35;;
69956;SDS011;57283;54.816;9.482;2023-01-19T03:49:00;10.75;;;6.25;;
69956;SDS011;57283;54.816;9.482;2023-01-19T03:51:28;8.70;;;4.22;;
69956;SDS011;57283;54.816;9.482;2023-01-19T03:53:56;11.00;;;5.05;;
69956;SDS011;57283;54.816;9.482;2023-01-19T03:56:24;9.23;;;3.73;;
69956;SDS011;57283;54.816;9.482;2023-01-19T03:58:52;12.98;;;5.80;;
69956;SDS011;57283;54.816;9.482;2023-01-19T04:01:24;12.10;;;6.38;;
69956;SDS011;57283;54.816;9.482;2023-01-19T04:03:52;14.85;;;7.82;;
69956;SDS011;57283;54.816;9.482;2023-01-19T04:06:20;9.38;;;4.65;;
69956;SDS011;57283;54.816;9.482;2023-01-19T04:08:48;11.37;;;4.50;;
69956;SDS011;57283;54.816;9.482;2023-01-19T04:11:17;9.65;;;3.58;;
69956;SDS011;57283;54.816;9.482;2023-01-19T04:13:45;13.25;;;5.78;;
69956;SDS011;57283;54.816;9.482;2023-01-19T04:16:13;13.85;;;8.05;;
69956;SDS011;57283;54.816;9.482;2023-01-19T04:18:46;14.23;;;7.13;;
69956;SDS011;57283;54.816;9.482;2023-01-19T04:21:14;10.43;;;5.30;;
69956;SDS011;57283;54.816;9.482;2023-01-19T04:23:43;12.45;;;6.10;;
69956;SDS011;57283;54.816;9.482;2023-01-19T04:26:11;14.40;;;7.03;;
69956;SDS011;57283;54.816;9.482;2023-01-19T04:28:39;9.07;;;4.28;;
69956;SDS011;57283;54.816;9.482;2023-01-19T04:31:07;13.10;;;7.07;;
69956;SDS011;57283;54.816;9.482;2023-01-19T04:33:35;11.80;;;5.87;;
69956;SDS011;57283;54.816;9.482;2023-01-19T04:36:05;7.90;;;4.30;;
69956;SDS011;57283;54.816;9.482;2023-01-19T04:38:34;12.05;;;6.13;;
69956;SDS011;57283;54.816;9.482;2023-01-19T04:41:02;12.20;;;5.78;;
69956;SDS011;57283;54.816;9.482;2023-01-19T04:43:30;7.43;;;3.45;;
69956;SDS011;57283;54.816;9.482;2023-01-19T04:45:58;11.40;;;5.87;;
69956;SDS011;57283;54.816;9.482;2023-01-19T04:48:26;9.95;;;5.07;;
69956;SDS011;57283;54.816;9.482;2023-01-19T04:50:53;7.03;;;3.45;;
69956;SDS011;57283;54.816;9.482;2023-01-19T04:53:22;6.15;;;2.92;;
69956;SDS011;57283;54.816;9.482;2023-01-19T04:55:51;7.80;;;3.13;;
69956;SDS011;57283;54.816;9.482;2023-01-19T04:58:21;6.43;;;2.30;;
69956;SDS011;57283;54.816;9.482;2023-01-19T05:00:49;7.50;;;3.78;;
69956;SDS011;57283;54.816;9.482;2023-01-19T05:03:18;3.75;;;1.65;;
69956;SDS011;57283;54.816;9.482;2023-01-19T05:05:46;5.90;;;2.08;;
69956;SDS011;57283;54.816;9.482;2023-01-19T05:08:14;5.15;;;2.15;;
69956;SDS011;57283;54.816;9.482;2023-01-19T05:10:43;6.20;;;2.53;;
69956;SDS011;57283;54.816;9.482;2023-01-19T05:13:11;4.60;;;1.60;;
69956;SDS011;57283;54.816;9.482;2023-01-19T05:15:39;5.32;;;1.88;;
69956;SDS011;57283;54.816;9.482;2023-01-19T05:18:07;6.03;;;2.40;;
69956;SDS011;57283;54.816;9.482;2023-01-19T05:20:35;5.50;;;1.73;;
69956;SDS011;57283;54.816;9.482;2023-01-19T05:23:02;5.10;;;2.07;;
69956;SDS011;57283;54.816;9.482;2023-01-19T05:25:30;4.75;;;1.70;;
69956;SDS011;57283;54.816;9.482;2023-01-19T05:27:59;4.03;;;1.35;;
69956;SDS011;57283;54.816;9.482;2023-01-19T05:30:28;5.75;;;2.22;;
69956;SDS011;57283;54.816;9.482;2023-01-19T05:32:56;8.48;;;2.50;;
69956;SDS011;57283;54.816;9.482;2023-01-19T05:35:24;8.20;;;3.10;;
69956;SDS011;57283;54.816;9.482;2023-01-19T05:38:01;9.57;;;4.22;;
69956;SDS011;57283;54.816;9.482;2023-01-19T05:46:13;10.90;;;4.43;;
69956;SDS011;57283;54.816;9.482;2023-01-19T05:48:41;8.90;;;3.50;;
69956;SDS011;57283;54.816;9.482;2023-01-19T05:51:10;10.43;;;4.82;;
69956;SDS011;57283;54.816;9.482;2023-01-19T05:53:38;17.00;;;4.72;;
69956;SDS011;57283;54.816;9.482;2023-01-19T05:56:06;13.40;;;5.75;;
69956;SDS011;57283;54.816;9.482;2023-01-19T05:58:35;17.20;;;5.45;;
69956;SDS011;57283;54.816;9.482;2023-01-19T06:01:05;9.73;;;4.47;;
69956;SDS011;57283;54.816;9.482;2023-01-19T06:03:36;8.10;;;3.20;;
69956;SDS011;57283;54.816;9.482;2023-01-19T06:06:04;8.63;;;3.50;;
69956;SDS011;57283;54.816;9.482;2023-01-19T06:08:32;9.18;;;3.58;;
69956;SDS011;57283;54.816;9.482;2023-01-19T06:18:28;8.27;;;3.23;;
69956;SDS011;57283;54.816;9.482;2023-01-19T06:20:54;6.53;;;2.92;;
69956;SDS011;57283;54.816;9.482;2023-01-19T06:23:23;7.35;;;3.15;;
69956;SDS011;57283;54.816;9.482;2023-01-19T06:25:49;7.95;;;2.85;;
69956;SDS011;57283;54.816;9.482;2023-01-19T06:28:16;6.25;;;2.72;;
69956;SDS011;57283;54.816;9.482;2023-01-19T06:30:44;7.43;;;3.50;;
69956;SDS011;57283;54.816;9.482;2023-01-19T06:33:11;10.50;;;4.22;;
69956;SDS011;57283;54.816;9.482;2023-01-19T06:38:58;9.55;;;4.60;;
69956;SDS011;57283;54.816;9.482;2023-01-19T06:41:28;11.65;;;5.57;;
69956;SDS011;57283;54.816;9.482;2023-01-19T06:43:56;8.85;;;4.03;;
69956;SDS011;57283;54.816;9.482;2023-01-19T06:46:23;10.10;;;4.23;;
69956;SDS011;57283;54.816;9.482;2023-01-19T06:48:51;11.32;;;5.50;;
69956;SDS011;57283;54.816;9.482;2023-01-19T06:51:18;14.48;;;5.70;;
69956;SDS011;57283;54.816;9.482;2023-01-19T06:53:46;13.10;;;5.50;;
69956;SDS011;57283;54.816;9.482;2023-01-19T06:56:15;10.73;;;5.28;;
69956;SDS011;57283;54.816;9.482;2023-01-19T06:58:43;12.70;;;5.53;;
69956;SDS011;57283;54.816;9.482;2023-01-19T07:01:12;9.65;;;4.57;;
69956;SDS011;57283;54.816;9.482;2023-01-19T07:03:40;9.73;;;5.03;;
69956;SDS011;57283;54.816;9.482;2023-01-19T07:06:09;14.30;;;6.20;;
69956;SDS011;57283;54.816;9.482;2023-01-19T07:08:37;14.70;;;5.55;;
69956;SDS011;57283;54.816;9.482;2023-01-19T07:11:06;14.33;;;6.60;;
69956;SDS011;57283;54.816;9.482;2023-01-19T07:13:55;14.90;;;5.97;;
69956;SDS011;57283;54.816;9.482;2023-01-19T07:16:22;12.20;;;5.78;;
69956;SDS011;57283;54.816;9.482;2023-01-19T07:18:50;9.65;;;4.60;;
69956;SDS011;57283;54.816;9.482;2023-01-19T07:21:18;13.57;;;5.55;;
69956;SDS011;57283;54.816;9.482;2023-01-19T07:23:46;11.30;;;5.20;;
69956;SDS011;57283;54.816;9.482;2023-01-19T07:26:14;11.40;;;5.15;;
69956;SDS011;57283;54.816;9.482;2023-01-19T07:28:43;10.80;;;4.75;;
69956;SDS011;57283;54.816;9.482;2023-01-19T07:31:15;11.10;;;5.40;;
69956;SDS011;57283;54.816;9.482;2023-01-19T07:33:43;11.65;;;5.38;;
69956;SDS011;57283;54.816;9.482;2023-01-19T07:36:10;14.00;;;4.90;;
69956;SDS011;57283;54.816;9.482;2023-01-19T07:38:38;15.05;;;6.13;;
69956;SDS011;57283;54.816;9.482;2023-01-19T07:41:07;12.68;;;4.80;;
69956;SDS011;57283;54.816;9.482;2023-01-19T07:43:35;14.18;;;6.60;;
69956;SDS011;57283;54.816;9.482;2023-01-19T07:46:03;15.05;;;6.80;;
69956;SDS011;57283;54.816;9.482;2023-01-19T07:48:33;13.00;;;6.27;;
69956;SDS011;57283;54.816;9.482;2023-01-19T07:51:01;10.25;;;4.40;;
69956;SDS011;57283;54.816;9.482;2023-01-19T07:53:30;9.82;;;4.53;;
69956;SDS011;57283;54.816;9.482;2023-01-19T07:55:58;12.85;;;5.57;;
69956;SDS011;57283;54.816;9.482;2023-01-19T07:58:26;9.48;;;4.03;;
69956;SDS011;57283;54.816;9.482;2023-01-19T08:00:53;10.35;;;4.45;;
69956;SDS011;57283;54.816;9.482;2023-01-19T08:03:21;8.77;;;4.57;;
69956;SDS011;57283;54.816;9.482;2023-01-19T08:05:50;8.48;;;3.30;;
69956;SDS011;57283;54.816;9.482;2023-01-19T08:08:18;9.18;;;4.28;;
69956;SDS011;57283;54.816;9.482;2023-01-19T08:10:48;12.95;;;4.57;;
69956;SDS011;57283;54.816;9.482;2023-01-19T08:13:16;11.40;;;5.50;;
69956;SDS011;57283;54.816;9.482;2023-01-19T08:15:43;11.52;;;4.68;;
69956;SDS011;57283;54.816;9.482;2023-01-19T08:18:11;9.85;;;4.80;;
69956;SDS011;57283;54.816;9.482;2023-01-19T08:20:40;12.82;;;4.28;;
69956;SDS011;57283;54.816;9.482;2023-01-19T08:23:09;12.93;;;5.20;;
69956;SDS011;57283;54.816;9.482;2023-01-19T08:25:38;8.70;;;4.00;;
69956;SDS011;57283;54.816;9.482;2023-01-19T08:28:07;12.10;;;5.00;;
69956;SDS011;57283;54.816;9.482;2023-01-19T08:30:35;10.68;;;5.20;;
69956;SDS011;57283;54.816;9.482;2023-01-19T08:33:03;8.77;;;4.40;;
69956;SDS011;57283;54.816;9.482;2023-01-19T08:35:33;8.85;;;4.22;;
69956;SDS011;57283;54.816;9.482;2023-01-19T08:38:02;12.40;;;5.13;;
69956;SDS011;57283;54.816;9.482;2023-01-19T08:40:32;8.18;;;4.30;;
69956;SDS011;57283;54.816;9.482;2023-01-19T08:43:00;10.07;;;4.53;;
69956;SDS011;57283;54.816;9.482;2023-01-19T08:45:32;10.45;;;4.18;;
69956;SDS011;57283;54.816;9.482;2023-01-19T08:47:59;11.30;;;4.63;;
69956;SDS011;57283;54.816;9.482;2023-01-19T08:50:27;8.25;;;3.72;;
69956;SDS011;57283;54.816;9.482;2023-01-19T08:52:55;10.63;;;4.45;;
69956;SDS011;57283;54.816;9.482;2023-01-19T08:55:23;9.77;;;4.70;;
69956;SDS011;57283;54.816;9.482;2023-01-19T08:57:53;10.38;;;5.15;;
69956;SDS011;57283;54.816;9.482;2023-01-19T09:00:22;9.70;;;4.35;;
69956;SDS011;57283;54.816;9.482;2023-01-19T09:02:50;11.43;;;3.72;;
69956;SDS011;57283;54.816;9.482;2023-01-19T09:05:18;10.90;;;3.97;;
69956;SDS011;57283;54.816;9.482;2023-01-19T09:07:45;8.68;;;4.32;;
69956;SDS011;57283;54.816;9.482;2023-01-19T09:10:14;8.27;;;4.00;;
69956;SDS011;57283;54.816;9.482;2023-01-19T09:12:42;10.25;;;4.63;;
69956;SDS011;57283;54.816;9.482;2023-01-19T09:15:11;9.57;;;4.57;;
69956;SDS011;57283;54.816;9.482;2023-01-19T09:17:40;8.98;;;3.92;;
69956;SDS011;57283;54.816;9.482;2023-01-19T09:20:08;11.98;;;4.65;;
69956;SDS011;57283;54.816;9.482;2023-01-19T09:22:35;10.68;;;4.45;;
69956;SDS011;57283;54.816;9.482;2023-01-19T09:25:05;9.15;;;3.75;;
69956;SDS011;57283;54.816;9.482;2023-01-19T09:27:33;9.15;;;4.30;;
69956;SDS011;57283;54.816;9.482;2023-01-19T09:30:00;9.77;;;4.13;;
69956;SDS011;57283;54.816;9.482;2023-01-19T09:32:29;11.52;;;5.35;;
69956;SDS011;57283;54.816;9.482;2023-01-19T09:34:57;10.00;;;4.30;;
69956;SDS011;57283;54.816;9.482;2023-01-19T09:37:24;10.10;;;4.25;;
69956;SDS011;57283;54.816;9.482;2023-01-19T09:39:52;11.15;;;4.28;;
69956;SDS011;57283;54.816;9.482;2023-01-19T09:42:21;9.70;;;4.60;;
69956;SDS011;57283;54.816;9.482;2023-01-19T09:44:50;9.20;;;4.32;;
69956;SDS011;57283;54.816;9.482;2023-01-19T09:47:20;8.60;;;3.97;;
69956;SDS011;57283;54.816;9.482;2023-01-19T09:49:52;10.20;;;4.63;;
69956;SDS011;57283;54.816;9.482;2023-01-19T09:52:20;10.63;;;4.43;;
69956;SDS011;57283;54.816;9.482;2023-01-19T09:54:48;8.55;;;3.88;;
69956;SDS011;57283;54.816;9.482;2023-01-19T09:57:19;11.40;;;4.68;;
69956;SDS011;57283;54.816;9.482;2023-01-19T09:59:47;7.03;;;3.85;;
69956;SDS011;57283;54.816;9.482;2023-01-19T10:02:27;9.40;;;4.13;;
69956;SDS011;57283;54.816;9.482;2023-01-19T10:05:00;9.63;;;4.43;;
69956;SDS011;57283;54.816;9.482;2023-01-19T10:10:19;8.70;;;4.18;;
69956;SDS011;57283;54.816;9.482;2023-01-19T10:12:54;7.45;;;3.65;;
69956;SDS011;57283;54.816;9.482;2023-01-19T10:15:26;8.43;;;4.10;;
69956;SDS011;57283;54.816;9.482;2023-01-19T10:18:03;9.00;;;4.15;;
69956;SDS011;57283;54.816;9.482;2023-01-19T10:20:36;8.02;;;4.22;;
69956;SDS011;57283;54.816;9.482;2023-01-19T10:23:12;9.20;;;4.05;;
69956;SDS011;57283;54.816;9.482;2023-01-19T10:25:44;11.23;;;4.10;;
69956;SDS011;57283;54.816;9.482;2023-01-19T10:28:13;9.55;;;4.18;;
69956;SDS011;57283;54.816;9.482;2023-01-19T10:30:41;10.10;;;4.60;;
69956;SDS011;57283;54.816;9.482;2023-01-19T10:33:11;8.80;;;4.30;;
69956;SDS011;57283;54.816;9.482;2023-01-19T10:35:40;11.55;;;4.20;;
69956;SDS011;57283;54.816;9.482;2023-01-19T10:38:08;9.57;;;4.13;;
69956;SDS011;57283;54.816;9.482;2023-01-19T10:40:41;8.48;;;4.50;;
69956;SDS011;57283;54.816;9.482;2023-01-19T10:45:54;9.30;;;4.37;;
69956;SDS011;57283;54.816;9.482;2023-01-19T10:48:22;9.73;;;4.30;;
69956;SDS011;57283;54.816;9.482;2023-01-19T10:50:51;9.98;;;4.20;;
69956;SDS011;57283;54.816;9.482;2023-01-19T10:53:27;9.88;;;4.32;;
69956;SDS011;57283;54.816;9.482;2023-01-19T10:56:08;9.05;;;4.63;;
69956;SDS011;57283;54.816;9.482;2023-01-19T10:58:37;8.37;;;4.17;;
69956;SDS011;57283;54.816;9.482;2023-01-19T11:01:11;11.77;;;4.53;;
69956;SDS011;57283;54.816;9.482;2023-01-19T11:03:39;8.43;;;4.20;;
69956;SDS011;57283;54.816;9.482;2023-01-19T11:06:21;11.15;;;4.40;;
69956;SDS011;57283;54.816;9.482;2023-01-19T11:08:50;9.13;;;4.25;;
69956;SDS011;57283;54.816;9.482;2023-01-19T11:11:18;11.93;;;4.70;;
69956;SDS011;57283;54.816;9.482;2023-01-19T11:14:00;9.20;;;4.35;;
69956;SDS011;57283;54.816;9.482;2023-01-19T11:16:29;8.57;;;4.75;;
69956;SDS011;57283;54.816;9.482;2023-01-19T11:19:00;9.25;;;4.20;;
69956;SDS011;57283;54.816;9.482;2023-01-19T11:21:30;7.78;;;4.00;;
69956;SDS011;57283;54.816;9.482;2023-01-19T11:23:59;9.20;;;4.27;;
69956;SDS011;57283;54.816;9.482;2023-01-19T11:26:27;8.85;;;3.78;;
69956;SDS011;57283;54.816;9.482;2023-01-19T11:28:56;7.40;;;3.97;;
69956;SDS011;57283;54.816;9.482;2023-01-19T11:31:31;11.27;;;4.40;;
69956;SDS011;57283;54.816;9.482;2023-01-19T11:34:00;8.48;;;3.85;;
69956;SDS011;57283;54.816;9.482;2023-01-19T11:36:28;8.57;;;4.47;;
69956;SDS011;57283;54.816;9.482;2023-01-19T11:38:58;9.82;;;4.45;;
69956;SDS011;57283;54.816;9.482;2023-01-19T11:41:27;8.35;;;4.30;;
69956;SDS011;57283;54.816;9.482;2023-01-19T11:43:55;12.77;;;4.65;;
69956;SDS011;57283;54.816;9.482;2023-01-19T11:46:24;8.85;;;3.50;;
69956;SDS011;57283;54.816;9.482;2023-01-19T11:48:53;8.90;;;4.13;;
69956;SDS011;57283;54.816;9.482;2023-01-19T11:51:28;8.77;;;4.32;;
69956;SDS011;57283;54.816;9.482;2023-01-19T11:53:58;9.32;;;4.00;;
69956;SDS011;57283;54.816;9.482;2023-01-19T11:56:27;7.38;;;3.78;;
69956;SDS011;57283;54.816;9.482;2023-01-19T11:58:55;7.18;;;3.50;;
69956;SDS011;57283;54.816;9.482;2023-01-19T12:01:23;7.43;;;3.90;;
69956;SDS011;57283;54.816;9.482;2023-01-19T12:03:54;8.30;;;4.65;;
69956;SDS011;57283;54.816;9.482;2023-01-19T12:06:24;7.25;;;3.67;;
69956;SDS011;57283;54.816;9.482;2023-01-19T12:08:53;8.18;;;3.38;;
69956;SDS011;57283;54.816;9.482;2023-01-19T12:11:24;9.13;;;5.13;;
69956;SDS011;57283;54.816;9.482;2023-01-19T12:13:52;7.70;;;4.23;;
69956;SDS011;57283;54.816;9.482;2023-01-19T12:16:20;8.27;;;3.38;;
69956;SDS011;57283;54.816;9.482;2023-01-19T12:18:50;7.28;;;3.42;;
69956;SDS011;57283;54.816;9.482;2023-01-19T12:21:19;6.32;;;3.30;;
69956;SDS011;57283;54.816;9.482;2023-01-19T12:23:50;7.70;;;3.28;;
69956;SDS011;57283;54.816;9.482;2023-01-19T12:26:24;5.50;;;3.00;;
69956;SDS011;57283;54.816;9.482;2023-01-19T12:28:54;7.40;;;3.05;;
69956;SDS011;57283;54.816;9.482;2023-01-19T12:31:22;7.25;;;3.20;;
69956;SDS011;57283;54.816;9.482;2023-01-19T12:33:50;9.98;;;3.30;;
69956;SDS011;57283;54.816;9.482;2023-01-19T12:36:34;6.93;;;3.10;;
69956;SDS011;57283;54.816;9.482;2023-01-19T12:39:02;10.07;;;3.07;;
69956;SDS011;57283;54.816;9.482;2023-01-19T12:41:31;7.80;;;2.85;;
69956;SDS011;57283;54.816;9.482;2023-01-19T12:46:59;7.82;;;2.08;;
69956;SDS011;57283;54.816;9.482;2023-01-19T12:49:38;5.20;;;2.17;;
69956;SDS011;57283;54.816;9.482;2023-01-19T12:52:11;4.70;;;2.40;;
69956;SDS011;57283;54.816;9.482;2023-01-19T12:54:39;4.65;;;2.08;;
69956;SDS011;57283;54.816;9.482;2023-01-19T12:57:14;5.47;;;2.28;;
69956;SDS011;57283;54.816;9.482;2023-01-19T12:59:43;4.82;;;1.95;;
69956;SDS011;57283;54.816;9.482;2023-01-19T13:02:30;3.78;;;1.90;;
69956;SDS011;57283;54.816;9.482;2023-01-19T13:05:14;5.03;;;2.13;;
69956;SDS011;57283;54.816;9.482;2023-01-19T13:13:18;5.07;;;1.90;;
69956;SDS011;57283;54.816;9.482;2023-01-19T13:15:46;4.90;;;1.92;;
69956;SDS011;57283;54.816;9.482;2023-01-19T13:18:15;6.30;;;2.30;;
69956;SDS011;57283;54.816;9.482;2023-01-19T13:20:45;5.13;;;2.40;;
69956;SDS011;57283;54.816;9.482;2023-01-19T13:23:20;6.50;;;2.20;;
69956;SDS011;57283;54.816;9.482;2023-01-19T13:26:01;3.90;;;1.60;;
69956;SDS011;57283;54.816;9.482;2023-01-19T13:28:34;4.40;;;1.55;;
69956;SDS011;57283;54.816;9.482;2023-01-19T13:31:02;5.70;;;1.50;;
69956;SDS011;57283;54.816;9.482;2023-01-19T13:33:32;4.88;;;1.70;;
69956;SDS011;57283;54.816;9.482;2023-01-19T13:36:11;3.90;;;1.40;;
69956;SDS011;57283;54.816;9.482;2023-01-19T13:38:41;4.32;;;1.55;;
69956;SDS011;57283;54.816;9.482;2023-01-19T13:41:09;3.38;;;1.20;;
69956;SDS011;57283;54.816;9.482;2023-01-19T13:43:42;3.63;;;1.30;;
69956;SDS011;57283;54.816;9.482;2023-01-19T13:46:10;4.97;;;1.27;;
69956;SDS011;57283;54.816;9.482;2023-01-19T13:48:40;3.75;;;1.00;;
69956;SDS011;57283;54.816;9.482;2023-01-19T13:51:18;3.70;;;0.90;;
69956;SDS011;57283;54.816;9.482;2023-01-19T13:53:53;3.30;;;1.00;;
69956;SDS011;57283;54.816;9.482;2023-01-19T13:56:21;2.67;;;0.73;;
69956;SDS011;57283;54.816;9.482;2023-01-19T13:59:01;4.55;;;0.90;;
69956;SDS011;57283;54.816;9.482;2023-01-19T14:01:30;3.13;;;0.90;;
69956;SDS011;57283;54.816;9.482;2023-01-19T14:03:58;2.58;;;0.95;;
69956;SDS011;57283;54.816;9.482;2023-01-19T14:06:30;2.60;;;0.70;;
69956;SDS011;57283;54.816;9.482;2023-01-19T14:09:05;4.28;;;0.90;;
69956;SDS011;57283;54.816;9.482;2023-01-19T14:11:33;2.63;;;0.80;;
69956;SDS011;57283;54.816;9.482;2023-01-19T14:14:02;2.47;;;0.70;;
69956;SDS011;57283;54.816;9.482;2023-01-19T14:16:29;2.65;;;0.73;;
69956;SDS011;57283;54.816;9.482;2023-01-19T14:18:58;3.22;;;0.68;;
69956;SDS011;57283;54.816;9.482;2023-01-19T14:21:35;2.83;;;0.70;;
69956;SDS011;57283;54.816;9.482;2023-01-19T14:24:06;2.63;;;0.90;;
69956;SDS011;57283;54.816;9.482;2023-01-19T14:26:37;2.40;;;0.70;;
69956;SDS011;57283;54.816;9.482;2023-01-19T14:29:21;3.33;;;0.77;;
69956;SDS011;57283;54.816;9.482;2023-01-19T14:31:50;3.85;;;0.90;;
69956;SDS011;57283;54.816;9.482;2023-01-19T14:34:30;3.58;;;0.73;;
69956;SDS011;57283;54.816;9.482;2023-01-19T14:36:58;3.08;;;0.68;;
69956;SDS011;57283;54.816;9.482;2023-01-19T14:39:26;2.60;;;0.80;;
69956;SDS011;57283;54.816;9.482;2023-01-19T14:41:56;2.47;;;0.63;;
69956;SDS011;57283;54.816;9.482;2023-01-19T14:44:27;3.00;;;0.85;;
69956;SDS011;57283;54.816;9.482;2023-01-19T14:46:55;2.22;;;0.60;;
69956;SDS011;57283;54.816;9.482;2023-01-19T14:49:27;2.83;;;0.75;;
69956;SDS011;57283;54.816;9.482;2023-01-19T14:51:56;3.42;;;0.75;;
69956;SDS011;57283;54.816;9.482;2023-01-19T14:54:26;4.35;;;0.70;;
69956;SDS011;57283;54.816;9.482;2023-01-19T14:56:55;1.90;;;0.45;;
69956;SDS011;57283;54.816;9.482;2023-01-19T14:59:23;3.28;;;0.70;;
69956;SDS011;57283;54.816;9.482;2023-01-19T15:01:52;3.72;;;1.10;;
69956;SDS011;57283;54.816;9.482;2023-01-19T15:04:19;3.08;;;0.70;;
69956;SDS011;57283;54.816;9.482;2023-01-19T15:06:48;4.90;;;0.88;;
69956;SDS011;57283;54.816;9.482;2023-01-19T15:09:15;5.10;;;0.77;;
69956;SDS011;57283;54.816;9.482;2023-01-19T15:11:44;6.65;;;1.10;;
69956;SDS011;57283;54.816;9.482;2023-01-19T15:14:13;3.08;;;0.73;;
69956;SDS011;57283;54.816;9.482;2023-01-19T15:16:41;3.25;;;0.80;;
69956;SDS011;57283;54.816;9.482;2023-01-19T15:19:11;3.38;;;0.90;;
69956;SDS011;57283;54.816;9.482;2023-01-19T15:21:39;4.13;;;1.00;;
69956;SDS011;57283;54.816;9.482;2023-01-19T15:24:07;7.72;;;1.15;;
69956;SDS011;57283;54.816;9.482;2023-01-19T15:26:36;4.55;;;1.25;;
69956;SDS011;57283;54.816;9.482;2023-01-19T15:29:10;2.67;;;0.77;;
69956;SDS011;57283;54.816;9.482;2023-01-19T15:31:40;5.18;;;0.82;;